Providence, Rhode Island
Traffic Map
Current Weather Conditions
Providence, Rhode Island
Overcast Light Snow
Overcast

Feels Like: -2°
Wind Chill: -2° Ceiling: 5500
Heat Index: Visibility: 10mi
Dew Point: -4° Wind: 15mph
Humidity: 62% Direction: 200° (SSW)
Pressure: 29.92in Gusts: 21mph
Raw Report DataKPVD 301251Z 20013G18KT 10SM -SN BKN055 OVC060 03/M04 A2992 RMK AO2 SNB48 SLP133 P0000 T00281039
Traffic Incident Summary
Active as of:
Severity:
Category:
InformationThere was an issue retrieving the traffic information for this location. Please try a different location or try again shortly.
Advertisements
Track Severe Weather on mobile